This is the latest recevied weather packets stored in our database for station/object W1CAT. If no packets are shown the sender has not sent any weather packets the latest 10 day(s).
| Time | Temp. | Humidity | Pressure | Rain* | Wind** | Luminosity | Snow |
|---|---|---|---|---|---|---|---|
| 1778018921 | 15.56° C | 40% | - | 0 mm | - | - | - |
| 1778018617 | 16.67° C | 39% | - | 0 mm | - | - | - |
| 1778018316 | 15° C | 42% | - | 0 mm | - | - | - |
| 1778018013 | 14.44° C | 43% | - | 0 mm | - | - | - |
| 1778017711 | 15° C | 42% | - | 0 mm | - | - | - |
| 1778017409 | 15.56° C | 41% | - | 0 mm | - | - | - |
| 1778017105 | 15° C | 41% | - | 0 mm | - | - | - |
| 1778016803 | 15° C | 41% | - | 0 mm | - | - | - |
| 1778016499 | 15° C | 42% | - | 0 mm | - | - | - |
| 1778016196 | 15° C | 42% | - | 0 mm | - | - | - |
| 1778015892 | 13.33° C | 45% | - | 0 mm | - | - | - |
| 1778015590 | 15° C | 43% | - | 0 mm | - | - | - |
| 1778015286 | 14.44° C | 43% | - | 0 mm | - | - | - |
| 1778014983 | 13.89° C | 44% | - | 0 mm | - | - | - |
| 1778014680 | 13.89° C | 44% | - | 0 mm | - | - | - |
| 1778014379 | 14.44° C | 42% | - | 0 mm | - | - | - |
| 1778014075 | 14.44° C | 41% | - | 0 mm | - | - | - |
| 1778013773 | 15° C | 40% | - | 0 mm | - | - | - |
| 1778013470 | 15.56° C | 40% | - | 0 mm | - | - | - |
| 1778013167 | 15° C | 40% | - | 0 mm | - | - | - |
| 1778012862 | 15° C | 40% | - | 0 mm | - | - | - |
| 1778012559 | 14.44° C | 41% | - | 0 mm | - | - | - |
| 1778012255 | 12.78° C | 41% | - | 0 mm | - | - | - |
| 1778011953 | 12.78° C | 42% | - | 0 mm | - | - | - |
| 1778011651 | 13.33° C | 37% | - | 0 mm | - | - | - |
* Rain latest hour (hover to see other rain measurements)
** Current wind speed in m/s (hover to see current wind gust speed)